リヤド の空港の天気 - METARとTAF

キング・ハーリド国際空港(リヤド) ( OERK / RUH ) - サウジアラビア リヤド
飛行場実況気象(Metar)
観測時間08/18 05:00 AST (08/18 02:00 UTC)
風向・風速西北西 2m/s
視程10km以上
天気現象
なし
気温29℃
湿度18%
気圧1007hPa
METAROERK 180200Z 29003KT CAVOK 29/02 Q1007 NOSIG
過去の天気等 Google飛行場航空写真 Wunderground天気予報

過去48時間のMETAR

飛行場予報(TAF)
発表時間: 8/18 02:00 AST (8/17 23:00 UTC)
予報対象時間: 18日3時 AST ~ 19日9時 AST
風向・風速不定 2m/s
視程7,000m
少しの雲 雲底高度 1,220m
18日9時 AST ~ 18日11時 AST に徐々に
風向・風速北 6m/s
18日19時 AST ~ 18日21時 AST に徐々に
風向・風速東 9m/s
TAF OERK 172300Z 1800/1906 VRB03KT 7000 FEW040
BECMG 1806/1808 36012KT
BECMG 1816/1818 08018KT